sensor_id;sensor_type;location;lat;lon;timestamp;P1;durP1;ratioP1;P2;durP2;ratioP2
18473;SDS011;30265;52.408;13.500;2022-08-04T00:02:12;9.60;;;5.72;;
18473;SDS011;30265;52.408;13.500;2022-08-04T00:12:41;10.18;;;5.88;;
18473;SDS011;30265;52.408;13.500;2022-08-04T00:23:07;10.32;;;6.00;;
18473;SDS011;30265;52.408;13.500;2022-08-04T00:33:30;10.52;;;6.13;;
18473;SDS011;30265;52.408;13.500;2022-08-04T00:44:06;10.53;;;6.10;;
18473;SDS011;30265;52.408;13.500;2022-08-04T00:54:49;11.13;;;6.30;;
18473;SDS011;30265;52.408;13.500;2022-08-04T01:16:20;11.95;;;5.80;;
18473;SDS011;30265;52.408;13.500;2022-08-04T01:26:52;9.23;;;6.05;;
18473;SDS011;30265;52.408;13.500;2022-08-04T01:37:22;8.02;;;5.60;;
18473;SDS011;30265;52.408;13.500;2022-08-04T01:47:54;13.27;;;6.90;;
18473;SDS011;30265;52.408;13.500;2022-08-04T01:58:18;9.00;;;5.72;;
18473;SDS011;30265;52.408;13.500;2022-08-04T02:08:44;11.23;;;6.18;;
18473;SDS011;30265;52.408;13.500;2022-08-04T02:19:16;9.20;;;5.93;;
18473;SDS011;30265;52.408;13.500;2022-08-04T02:29:46;12.52;;;6.10;;
18473;SDS011;30265;52.408;13.500;2022-08-04T02:40:18;9.77;;;6.13;;
18473;SDS011;30265;52.408;13.500;2022-08-04T02:50:41;9.68;;;6.10;;
18473;SDS011;30265;52.408;13.500;2022-08-04T03:01:06;10.80;;;6.80;;
18473;SDS011;30265;52.408;13.500;2022-08-04T03:11:34;10.55;;;6.93;;
18473;SDS011;30265;52.408;13.500;2022-08-04T03:33:24;10.88;;;7.07;;
18473;SDS011;30265;52.408;13.500;2022-08-04T03:44:34;14.25;;;8.48;;
18473;SDS011;30265;52.408;13.500;2022-08-04T04:28:49;13.43;;;8.00;;
18473;SDS011;30265;52.408;13.500;2022-08-04T04:39:30;16.88;;;9.25;;
18473;SDS011;30265;52.408;13.500;2022-08-04T04:49:58;14.40;;;8.45;;
18473;SDS011;30265;52.408;13.500;2022-08-04T05:00:33;23.45;;;9.77;;
18473;SDS011;30265;52.408;13.500;2022-08-04T05:22:16;9.05;;;7.43;;
18473;SDS011;30265;52.408;13.500;2022-08-04T05:32:47;15.93;;;7.75;;
18473;SDS011;30265;52.408;13.500;2022-08-04T05:43:20;13.70;;;7.53;;
18473;SDS011;30265;52.408;13.500;2022-08-04T05:53:43;17.60;;;8.93;;
18473;SDS011;30265;52.408;13.500;2022-08-04T06:04:07;9.60;;;6.78;;
18473;SDS011;30265;52.408;13.500;2022-08-04T06:14:32;9.20;;;6.50;;
18473;SDS011;30265;52.408;13.500;2022-08-04T06:24:57;7.28;;;5.28;;
18473;SDS011;30265;52.408;13.500;2022-08-04T06:35:21;6.53;;;5.30;;
18473;SDS011;30265;52.408;13.500;2022-08-04T06:45:46;6.53;;;4.93;;
18473;SDS011;30265;52.408;13.500;2022-08-04T06:56:09;7.97;;;4.28;;
18473;SDS011;30265;52.408;13.500;2022-08-04T07:06:40;4.75;;;4.22;;
18473;SDS011;30265;52.408;13.500;2022-08-04T07:17:05;5.40;;;4.80;;
18473;SDS011;30265;52.408;13.500;2022-08-04T07:27:30;11.02;;;4.25;;
18473;SDS011;30265;52.408;13.500;2022-08-04T07:38:08;7.53;;;4.20;;
18473;SDS011;30265;52.408;13.500;2022-08-04T07:48:32;4.78;;;3.92;;
18473;SDS011;30265;52.408;13.500;2022-08-04T07:58:54;6.70;;;4.05;;
18473;SDS011;30265;52.408;13.500;2022-08-04T08:09:18;4.85;;;3.70;;
18473;SDS011;30265;52.408;13.500;2022-08-04T08:19:40;4.50;;;3.85;;
18473;SDS011;30265;52.408;13.500;2022-08-04T08:30:03;7.43;;;3.78;;
18473;SDS011;30265;52.408;13.500;2022-08-04T08:40:29;5.57;;;3.83;;
18473;SDS011;30265;52.408;13.500;2022-08-04T09:02:00;7.03;;;3.83;;
18473;SDS011;30265;52.408;13.500;2022-08-04T09:12:35;4.93;;;3.65;;
18473;SDS011;30265;52.408;13.500;2022-08-04T09:23:14;5.60;;;4.05;;
18473;SDS011;30265;52.408;13.500;2022-08-04T09:33:41;4.65;;;2.92;;
18473;SDS011;30265;52.408;13.500;2022-08-04T09:44:14;4.43;;;3.00;;
18473;SDS011;30265;52.408;13.500;2022-08-04T09:55:04;5.90;;;3.35;;
18473;SDS011;30265;52.408;13.500;2022-08-04T10:05:37;4.00;;;3.28;;
18473;SDS011;30265;52.408;13.500;2022-08-04T10:16:14;3.53;;;2.90;;
18473;SDS011;30265;52.408;13.500;2022-08-04T10:26:48;5.68;;;2.90;;
18473;SDS011;30265;52.408;13.500;2022-08-04T10:37:18;6.13;;;2.88;;
18473;SDS011;30265;52.408;13.500;2022-08-04T10:48:06;3.78;;;2.95;;
18473;SDS011;30265;52.408;13.500;2022-08-04T10:58:55;5.18;;;2.50;;
18473;SDS011;30265;52.408;13.500;2022-08-04T11:09:23;4.32;;;2.80;;
18473;SDS011;30265;52.408;13.500;2022-08-04T11:19:46;4.63;;;2.85;;
18473;SDS011;30265;52.408;13.500;2022-08-04T11:30:29;4.05;;;2.42;;
18473;SDS011;30265;52.408;13.500;2022-08-04T11:40:56;7.32;;;2.95;;
18473;SDS011;30265;52.408;13.500;2022-08-04T11:51:23;3.03;;;2.45;;
18473;SDS011;30265;52.408;13.500;2022-08-04T12:01:53;8.45;;;2.55;;
18473;SDS011;30265;52.408;13.500;2022-08-04T12:12:42;3.78;;;2.35;;
18473;SDS011;30265;52.408;13.500;2022-08-04T12:23:14;3.08;;;2.65;;
18473;SDS011;30265;52.408;13.500;2022-08-04T12:33:46;3.05;;;2.28;;
18473;SDS011;30265;52.408;13.500;2022-08-04T12:44:27;4.38;;;2.55;;
18473;SDS011;30265;52.408;13.500;2022-08-04T12:55:00;2.78;;;2.38;;
18473;SDS011;30265;52.408;13.500;2022-08-04T13:05:24;7.53;;;2.08;;
18473;SDS011;30265;52.408;13.500;2022-08-04T13:15:55;6.20;;;2.10;;
18473;SDS011;30265;52.408;13.500;2022-08-04T13:26:18;3.83;;;2.60;;
18473;SDS011;30265;52.408;13.500;2022-08-04T13:37:02;5.05;;;2.38;;
18473;SDS011;30265;52.408;13.500;2022-08-04T13:47:26;4.47;;;2.40;;
18473;SDS011;30265;52.408;13.500;2022-08-04T13:57:54;3.22;;;2.30;;
18473;SDS011;30265;52.408;13.500;2022-08-04T14:08:19;2.42;;;1.77;;
18473;SDS011;30265;52.408;13.500;2022-08-04T14:29:14;3.92;;;1.95;;
18473;SDS011;30265;52.408;13.500;2022-08-04T14:39:50;3.38;;;1.90;;
18473;SDS011;30265;52.408;13.500;2022-08-04T14:50:35;3.10;;;2.00;;
18473;SDS011;30265;52.408;13.500;2022-08-04T15:01:01;2.80;;;1.80;;
18473;SDS011;30265;52.408;13.500;2022-08-04T15:11:30;4.35;;;1.77;;
18473;SDS011;30265;52.408;13.500;2022-08-04T15:21:59;3.90;;;1.90;;
18473;SDS011;30265;52.408;13.500;2022-08-04T15:32:24;7.63;;;2.05;;
18473;SDS011;30265;52.408;13.500;2022-08-04T15:42:58;2.30;;;1.88;;
18473;SDS011;30265;52.408;13.500;2022-08-04T15:53:28;7.97;;;2.00;;
18473;SDS011;30265;52.408;13.500;2022-08-04T16:04:22;2.55;;;1.83;;
18473;SDS011;30265;52.408;13.500;2022-08-04T16:14:45;3.47;;;2.10;;
18473;SDS011;30265;52.408;13.500;2022-08-04T16:25:08;4.65;;;1.73;;
18473;SDS011;30265;52.408;13.500;2022-08-04T16:35:29;6.15;;;2.05;;
18473;SDS011;30265;52.408;13.500;2022-08-04T16:45:54;4.68;;;2.13;;
18473;SDS011;30265;52.408;13.500;2022-08-04T16:56:17;2.83;;;1.97;;
18473;SDS011;30265;52.408;13.500;2022-08-04T17:06:49;2.28;;;1.63;;
18473;SDS011;30265;52.408;13.500;2022-08-04T17:17:11;2.45;;;1.80;;
18473;SDS011;30265;52.408;13.500;2022-08-04T17:27:37;4.30;;;2.00;;
18473;SDS011;30265;52.408;13.500;2022-08-04T17:38:19;4.10;;;2.30;;
18473;SDS011;30265;52.408;13.500;2022-08-04T17:48:42;5.97;;;2.03;;
18473;SDS011;30265;52.408;13.500;2022-08-04T18:10:12;4.50;;;2.00;;
18473;SDS011;30265;52.408;13.500;2022-08-04T18:20:55;5.82;;;2.15;;
18473;SDS011;30265;52.408;13.500;2022-08-04T18:31:25;7.25;;;2.20;;
18473;SDS011;30265;52.408;13.500;2022-08-04T18:41:55;5.65;;;2.00;;
18473;SDS011;30265;52.408;13.500;2022-08-04T18:52:25;5.88;;;2.67;;
18473;SDS011;30265;52.408;13.500;2022-08-04T19:02:48;3.60;;;2.75;;
18473;SDS011;30265;52.408;13.500;2022-08-04T19:13:11;11.13;;;2.92;;
18473;SDS011;30265;52.408;13.500;2022-08-04T19:23:46;5.97;;;3.53;;
18473;SDS011;30265;52.408;13.500;2022-08-04T19:44:53;13.00;;;3.33;;
18473;SDS011;30265;52.408;13.500;2022-08-04T19:55:26;4.35;;;2.80;;
18473;SDS011;30265;52.408;13.500;2022-08-04T20:06:00;6.68;;;3.45;;
18473;SDS011;30265;52.408;13.500;2022-08-04T20:16:24;6.25;;;3.60;;
18473;SDS011;30265;52.408;13.500;2022-08-04T20:26:49;5.45;;;3.30;;
18473;SDS011;30265;52.408;13.500;2022-08-04T20:37:13;6.97;;;3.23;;
18473;SDS011;30265;52.408;13.500;2022-08-04T20:47:35;5.22;;;3.20;;
18473;SDS011;30265;52.408;13.500;2022-08-04T20:58:00;4.18;;;3.20;;
18473;SDS011;30265;52.408;13.500;2022-08-04T21:08:28;5.65;;;3.15;;
18473;SDS011;30265;52.408;13.500;2022-08-04T21:18:55;8.25;;;3.72;;
18473;SDS011;30265;52.408;13.500;2022-08-04T21:29:25;6.20;;;3.80;;
18473;SDS011;30265;52.408;13.500;2022-08-04T21:40:11;8.70;;;3.50;;
18473;SDS011;30265;52.408;13.500;2022-08-04T21:50:45;3.72;;;3.30;;
18473;SDS011;30265;52.408;13.500;2022-08-04T22:01:11;6.30;;;3.72;;
18473;SDS011;30265;52.408;13.500;2022-08-04T22:11:54;6.15;;;4.22;;
18473;SDS011;30265;52.408;13.500;2022-08-04T22:22:18;5.03;;;4.27;;
18473;SDS011;30265;52.408;13.500;2022-08-04T22:32:45;6.03;;;4.32;;
18473;SDS011;30265;52.408;13.500;2022-08-04T22:43:11;4.78;;;4.28;;
18473;SDS011;30265;52.408;13.500;2022-08-04T22:53:52;4.97;;;3.90;;
18473;SDS011;30265;52.408;13.500;2022-08-04T23:04:15;5.70;;;4.35;;
18473;SDS011;30265;52.408;13.500;2022-08-04T23:14:36;4.80;;;4.20;;
18473;SDS011;30265;52.408;13.500;2022-08-04T23:24:59;7.28;;;4.70;;
18473;SDS011;30265;52.408;13.500;2022-08-04T23:35:22;5.53;;;4.53;;
18473;SDS011;30265;52.408;13.500;2022-08-04T23:45:47;6.10;;;4.25;;
18473;SDS011;30265;52.408;13.500;2022-08-04T23:56:27;5.37;;;4.67;;
